YGX weather

Gillam Airport
Gillam, Manitoba, Canada

Public forecast

Using degrees Celsius for public forecast. Weather courtesy of forecast.io.

METAR (pilot weather report)

Retrieved 2018/12/13 01:00 UTC (20 minutes ago):

CYGX 130100Z 18008KT 3SM BR BKN005 M07/M08 A2949 RMK ST6 SLP000

TAF (pilot weather forecast)

Retrieved 2018/12/13 01:42 UTC (0 seconds ago):

TAF CYGX 130038Z 1301/1313 18010KT P6SM FEW120 FM130400 20008KT P6SM SCT006 BKN025 TEMPO 1304/1313 2SM -SN BKN006 BECMG 1311/1313 24008KT RMK NXT FCST BY 130700Z